createdAt,value
2018-03-11T00:00:58.939Z,13.64
2018-03-11T00:03:28.183Z,13.63
2018-03-11T00:05:58.151Z,13.62
2018-03-11T00:08:27.367Z,13.63
2018-03-11T00:10:56.577Z,13.64
2018-03-11T00:13:26.583Z,13.59
2018-03-11T00:15:55.808Z,13.59
2018-03-11T00:18:25.808Z,13.63
2018-03-11T00:20:55.874Z,13.65
2018-03-11T00:23:25.104Z,13.61
2018-03-11T00:25:54.337Z,13.61
2018-03-11T00:28:24.271Z,13.60
2018-03-11T00:30:53.506Z,13.60
2018-03-11T00:33:22.757Z,13.59
2018-03-11T00:35:52.794Z,13.61
2018-03-11T00:38:22.081Z,13.59
2018-03-11T00:40:51.283Z,13.61
2018-03-11T00:43:20.690Z,13.61
2018-03-11T00:45:50.357Z,13.64
2018-03-11T00:48:19.579Z,13.65
2018-03-11T00:50:48.784Z,13.65
2018-03-11T00:53:17.974Z,13.66
2018-03-11T00:55:47.182Z,13.56
2018-03-11T00:58:16.524Z,13.53
2018-03-11T01:00:45.724Z,13.57
2018-03-11T01:03:14.939Z,13.61
2018-03-11T01:05:44.163Z,13.60
2018-03-11T01:08:13.394Z,13.56
2018-03-11T01:10:42.620Z,13.55
2018-03-11T01:13:12.542Z,13.49
2018-03-11T01:15:41.768Z,13.52
2018-03-11T01:18:11.784Z,13.48
2018-03-11T01:20:41.002Z,13.47
2018-03-11T01:23:10.287Z,13.43
2018-03-11T01:25:39.499Z,13.36
2018-03-11T01:28:08.740Z,13.32
2018-03-11T01:30:37.952Z,13.31
2018-03-11T01:33:07.194Z,13.28
2018-03-11T01:35:36.434Z,13.27
2018-03-11T01:38:06.453Z,13.24
2018-03-11T01:40:35.710Z,13.23
2018-03-11T01:43:04.944Z,13.18
2018-03-11T01:45:34.181Z,13.17
2018-03-11T01:48:04.259Z,13.17
2018-03-11T01:50:33.520Z,13.17
2018-03-11T01:53:09.519Z,13.14
2018-03-11T01:55:38.775Z,13.12
2018-03-11T01:58:08.018Z,13.11
2018-03-11T02:00:37.240Z,13.08
2018-03-11T02:03:07.242Z,13.03
2018-03-11T02:05:36.466Z,13.02
2018-03-11T02:08:05.801Z,12.93
2018-03-11T02:10:35.010Z,12.89
2018-03-11T02:13:04.238Z,12.85
2018-03-11T02:15:34.235Z,12.80
2018-03-11T02:18:03.446Z,12.69
2018-03-11T02:20:33.441Z,12.61
2018-03-11T02:23:02.671Z,12.56
2018-03-11T02:25:32.646Z,12.49
2018-03-11T02:28:01.892Z,12.46
2018-03-11T02:30:31.943Z,12.39
2018-03-11T02:33:01.205Z,12.29
2018-03-11T02:35:30.393Z,12.23
2018-03-11T02:38:00.389Z,12.12
2018-03-11T02:40:29.616Z,12.12
2018-03-11T02:42:59.616Z,12.07
2018-03-11T02:45:28.807Z,11.98
2018-03-11T02:47:58.051Z,11.89
2018-03-11T02:50:27.280Z,11.84
2018-03-11T02:52:56.523Z,11.86
2018-03-11T02:55:25.840Z,11.79
2018-03-11T02:57:55.050Z,11.64
2018-03-11T03:00:24.283Z,11.56
2018-03-11T03:02:53.513Z,11.51
2018-03-11T03:05:23.537Z,11.54
2018-03-11T03:07:54.152Z,11.51
2018-03-11T03:10:24.137Z,11.52
2018-03-11T03:12:53.340Z,11.54
2018-03-11T03:15:22.556Z,11.56
2018-03-11T03:17:52.122Z,11.55
2018-03-11T03:20:21.405Z,11.53
2018-03-11T03:22:50.638Z,11.55
2018-03-11T03:25:19.900Z,11.55
2018-03-11T03:27:49.168Z,11.57
2018-03-11T03:30:19.183Z,11.59
2018-03-11T03:32:49.151Z,11.57
2018-03-11T03:35:18.581Z,11.58
2018-03-11T03:37:47.838Z,11.57
2018-03-11T03:40:17.072Z,11.50
2018-03-11T03:42:46.324Z,11.56
2018-03-11T03:45:15.582Z,11.57
2018-03-11T03:47:44.798Z,11.55
2018-03-11T03:50:14.844Z,11.57
2018-03-11T03:52:44.084Z,11.54
2018-03-11T03:55:14.119Z,11.55
2018-03-11T03:57:44.234Z,11.57
2018-03-11T04:00:14.371Z,11.58
2018-03-11T04:02:44.342Z,11.54
2018-03-11T04:05:13.607Z,11.50
2018-03-11T04:07:42.847Z,11.52
2018-03-11T04:10:12.351Z,11.54
2018-03-11T04:12:41.859Z,11.51
2018-03-11T04:15:11.074Z,11.50
2018-03-11T04:17:40.329Z,11.55
2018-03-11T04:20:10.418Z,11.54
2018-03-11T04:22:39.694Z,11.53
2018-03-11T04:25:08.874Z,11.50
2018-03-11T04:27:38.109Z,11.50
2018-03-11T04:30:08.159Z,11.47
2018-03-11T04:32:37.382Z,11.41
2018-03-11T04:35:06.671Z,11.43
2018-03-11T04:37:35.857Z,11.38
2018-03-11T04:40:05.709Z,11.36
2018-03-11T04:42:35.744Z,11.37
2018-03-11T04:45:04.957Z,11.36
2018-03-11T04:47:35.039Z,11.37
2018-03-11T04:50:04.268Z,11.41
2018-03-11T04:52:33.524Z,11.43
2018-03-11T04:55:02.773Z,11.45
2018-03-11T04:57:31.998Z,11.45
2018-03-11T05:00:01.212Z,11.49
2018-03-11T05:02:30.495Z,11.51
2018-03-11T05:04:59.699Z,11.48
2018-03-11T05:07:29.082Z,11.46
2018-03-11T05:09:59.127Z,11.42
2018-03-11T05:12:28.281Z,11.41
2018-03-11T05:14:57.517Z,11.41
2018-03-11T05:17:26.719Z,11.39
2018-03-11T05:19:56.012Z,11.34
2018-03-11T05:22:25.223Z,11.37
2018-03-11T05:24:55.225Z,11.41
2018-03-11T05:27:24.482Z,11.44
2018-03-11T05:29:53.763Z,11.49
2018-03-11T05:32:24.019Z,11.48
2018-03-11T05:34:53.277Z,11.51
2018-03-11T05:37:23.237Z,11.51
2018-03-11T05:39:52.480Z,11.54
2018-03-11T05:42:22.473Z,11.58
2018-03-11T05:44:51.712Z,11.60
2018-03-11T05:47:20.952Z,11.61
2018-03-11T05:49:50.164Z,11.63
2018-03-11T05:52:19.375Z,11.71
2018-03-11T05:54:48.594Z,11.76
2018-03-11T05:57:17.832Z,11.83
2018-03-11T05:59:47.063Z,11.87
2018-03-11T06:02:16.296Z,11.91
2018-03-11T06:04:46.268Z,11.93
2018-03-11T06:07:15.498Z,11.88
2018-03-11T06:09:45.473Z,11.86
2018-03-11T06:12:14.764Z,11.80
2018-03-11T06:14:43.991Z,11.81
2018-03-11T06:17:13.260Z,11.79
2018-03-11T06:19:42.482Z,11.77
2018-03-11T06:22:12.566Z,11.79
2018-03-11T06:24:41.808Z,11.74
2018-03-11T06:27:11.145Z,11.74
2018-03-11T06:29:40.338Z,11.71
2018-03-11T06:32:09.575Z,11.67
2018-03-11T06:34:39.547Z,11.68
2018-03-11T06:37:08.788Z,11.70
2018-03-11T06:39:38.020Z,11.74
2018-03-11T06:42:07.241Z,11.76
2018-03-11T06:44:36.446Z,11.82
2018-03-11T06:47:06.418Z,11.83
2018-03-11T06:49:35.650Z,11.87
2018-03-11T06:52:04.906Z,11.88
2018-03-11T06:54:34.244Z,11.89
2018-03-11T06:57:04.234Z,11.97
2018-03-11T06:59:33.459Z,11.94
2018-03-11T07:02:02.795Z,12.03
2018-03-11T07:04:32.214Z,12.06
2018-03-11T07:07:01.412Z,12.13
2018-03-11T07:09:30.634Z,12.19
2018-03-11T07:11:59.832Z,12.30
2018-03-11T07:14:29.818Z,12.31
2018-03-11T07:16:59.040Z,12.34
2018-03-11T07:19:28.518Z,12.49
2018-03-11T07:21:57.726Z,12.57
2018-03-11T07:24:26.941Z,12.64
2018-03-11T07:26:56.192Z,12.70
2018-03-11T07:29:26.303Z,12.76
2018-03-11T07:31:55.507Z,12.81
2018-03-11T07:34:24.753Z,12.85
2018-03-11T07:39:29.376Z,12.69
2018-03-11T07:41:58.594Z,12.54
2018-03-11T07:44:27.838Z,12.45
2018-03-11T07:46:57.047Z,12.36
2018-03-11T07:49:26.286Z,12.33
2018-03-11T07:51:55.528Z,12.35
2018-03-11T07:54:24.779Z,12.38
2018-03-11T07:56:54.021Z,12.39
2018-03-11T07:59:23.235Z,12.42
2018-03-11T08:01:52.497Z,12.41
2018-03-11T08:04:21.663Z,12.47
2018-03-11T08:06:50.900Z,12.52
2018-03-11T08:09:20.091Z,12.60
2018-03-11T08:11:50.106Z,12.70
2018-03-11T08:14:20.099Z,12.75
2018-03-11T08:16:49.309Z,12.80
2018-03-11T08:19:19.327Z,12.89
2018-03-11T08:21:48.655Z,13.02
2018-03-11T08:24:17.880Z,13.12
2018-03-11T08:26:47.089Z,13.19
2018-03-11T08:29:17.090Z,13.29
2018-03-11T08:31:46.317Z,13.34
2018-03-11T08:34:15.551Z,13.39
2018-03-11T08:36:44.755Z,13.44
2018-03-11T08:39:14.055Z,13.52
2018-03-11T08:41:44.063Z,13.57
2018-03-11T08:44:13.821Z,13.66
2018-03-11T08:46:43.064Z,13.76
2018-03-11T08:49:13.288Z,13.82
2018-03-11T08:51:43.673Z,13.89
2018-03-11T08:54:12.928Z,13.96
2018-03-11T08:56:42.136Z,14.01
2018-03-11T08:59:11.374Z,14.09
2018-03-11T09:01:40.596Z,14.20
2018-03-11T09:04:10.623Z,14.32
2018-03-11T09:06:40.618Z,14.45
2018-03-11T09:09:09.879Z,14.61
2018-03-11T09:11:39.107Z,14.76
2018-03-11T09:14:09.143Z,14.90
2018-03-11T09:16:39.155Z,15.01
2018-03-11T09:19:08.596Z,15.14
2018-03-11T09:21:37.876Z,15.19
2018-03-11T09:24:07.841Z,15.19
2018-03-11T09:26:37.097Z,15.30
2018-03-11T09:29:06.446Z,15.30
2018-03-11T09:31:35.718Z,15.39
2018-03-11T09:34:04.932Z,15.46
2018-03-11T09:36:34.190Z,15.47
2018-03-11T09:39:03.398Z,15.53
2018-03-11T09:41:32.637Z,15.62
2018-03-11T09:44:01.876Z,15.68
2018-03-11T09:46:31.141Z,15.72
2018-03-11T09:49:01.587Z,15.79
2018-03-11T09:51:31.661Z,15.88
2018-03-11T09:54:00.967Z,15.97
2018-03-11T09:56:30.217Z,16.00
2018-03-11T09:59:00.239Z,16.02
2018-03-11T10:01:29.553Z,16.03
2018-03-11T10:03:58.771Z,16.10
2018-03-11T10:06:28.036Z,16.17
2018-03-11T10:08:57.228Z,16.21
2018-03-11T10:11:26.467Z,16.18
2018-03-11T10:13:55.790Z,16.19
2018-03-11T10:16:25.042Z,16.20
2018-03-11T10:18:54.285Z,16.16
2018-03-11T10:21:23.529Z,16.14
2018-03-11T10:23:52.786Z,16.05
2018-03-11T10:26:22.014Z,15.98
2018-03-11T10:28:52.005Z,15.92
2018-03-11T10:31:21.211Z,15.82
2018-03-11T10:33:51.985Z,15.84
2018-03-11T10:36:21.224Z,15.85
2018-03-11T10:38:50.444Z,15.91
2018-03-11T10:41:20.450Z,16.02
2018-03-11T10:43:49.707Z,16.08
2018-03-11T10:46:18.983Z,16.20
2018-03-11T10:48:48.210Z,16.25
2018-03-11T10:51:17.704Z,16.29
2018-03-11T10:53:46.924Z,16.32
2018-03-11T10:56:16.261Z,16.35
2018-03-11T10:58:47.227Z,16.41
2018-03-11T11:01:16.697Z,16.46
2018-03-11T11:03:51.408Z,16.49
2018-03-11T11:06:20.690Z,16.47
2018-03-11T11:08:49.997Z,16.41
2018-03-11T11:11:19.228Z,16.40
2018-03-11T11:13:49.533Z,16.36
2018-03-11T11:16:18.748Z,16.36
2018-03-11T11:18:48.744Z,16.40
2018-03-11T11:21:17.963Z,16.44
2018-03-11T11:23:47.943Z,16.50
2018-03-11T11:26:17.393Z,16.59
2018-03-11T11:28:46.596Z,16.70
2018-03-11T11:31:15.999Z,16.76
2018-03-11T11:33:45.950Z,16.81
2018-03-11T11:36:15.186Z,16.85
2018-03-11T11:38:45.260Z,16.89
2018-03-11T11:41:14.530Z,16.92
2018-03-11T11:43:43.783Z,16.88
2018-03-11T11:46:14.640Z,16.91
2018-03-11T11:48:43.953Z,16.95
2018-03-11T11:51:13.238Z,16.92
2018-03-11T11:53:42.642Z,16.96
2018-03-11T11:56:12.220Z,16.97
2018-03-11T11:58:41.561Z,16.92
2018-03-11T12:01:10.790Z,16.88
2018-03-11T12:03:40.085Z,16.91
2018-03-11T12:06:09.341Z,16.92
2018-03-11T12:08:39.375Z,16.95
2018-03-11T12:11:08.634Z,16.93
2018-03-11T12:13:38.037Z,16.92
2018-03-11T12:16:07.254Z,16.85
2018-03-11T12:18:36.696Z,16.83
2018-03-11T12:21:06.322Z,16.76
2018-03-11T12:23:35.593Z,16.71
2018-03-11T12:26:04.835Z,16.67
2018-03-11T12:28:34.114Z,16.71
2018-03-11T12:31:03.362Z,16.72
2018-03-11T12:33:33.371Z,16.67
2018-03-11T12:36:02.623Z,16.63
2018-03-11T12:38:31.836Z,16.62
2018-03-11T12:41:01.123Z,16.62
2018-03-11T12:43:31.073Z,16.63
2018-03-11T12:46:01.114Z,16.69
2018-03-11T12:48:30.330Z,16.71
2018-03-11T12:51:00.462Z,16.74
2018-03-11T12:53:29.862Z,16.68
2018-03-11T12:55:59.862Z,16.72
2018-03-11T12:58:29.159Z,16.77
2018-03-11T13:00:58.399Z,16.78
2018-03-11T13:03:27.628Z,16.76
2018-03-11T13:05:57.618Z,16.70
2018-03-11T13:08:26.909Z,16.75
2018-03-11T13:10:56.174Z,16.81
2018-03-11T13:13:26.157Z,16.86
2018-03-11T13:15:56.149Z,16.92
2018-03-11T13:18:25.402Z,16.94
2018-03-11T13:21:09.200Z,17.00
2018-03-11T13:23:38.866Z,16.99
2018-03-11T13:26:08.176Z,17.07
2018-03-11T13:28:48.027Z,17.13
2018-03-11T13:31:17.241Z,17.24
2018-03-11T13:34:04.030Z,17.26
2018-03-11T13:36:33.252Z,17.20
2018-03-11T13:39:20.226Z,17.20
2018-03-11T13:41:49.492Z,17.28
2018-03-11T13:44:19.557Z,17.30
2018-03-11T13:47:09.024Z,17.31
2018-03-11T13:49:38.266Z,17.29
2018-03-11T13:52:26.417Z,17.37
2018-03-11T13:54:55.675Z,17.48
2018-03-11T14:11:06.255Z,17.30
2018-03-11T14:13:35.507Z,17.28
2018-03-11T14:16:04.730Z,17.29
2018-03-11T14:18:33.955Z,17.31
2018-03-11T14:21:03.939Z,17.35
2018-03-11T14:23:33.155Z,17.37
2018-03-11T14:26:03.139Z,17.31
2018-03-11T14:28:32.374Z,17.36
2018-03-11T14:31:01.704Z,17.29
2018-03-11T14:33:30.931Z,17.34
2018-03-11T14:36:00.132Z,17.37
2018-03-11T14:38:29.379Z,17.34
2018-03-11T14:40:59.454Z,17.29
2018-03-11T14:43:28.676Z,17.19
2018-03-11T14:45:58.055Z,17.07
2018-03-11T14:48:27.299Z,17.04
2018-03-11T14:50:57.265Z,16.97
2018-03-11T14:53:26.488Z,16.92
2018-03-11T14:55:55.720Z,16.88
2018-03-11T14:58:25.739Z,16.87
2018-03-11T15:00:55.087Z,16.92
2018-03-11T15:03:24.427Z,16.93
2018-03-11T15:05:54.403Z,16.90
2018-03-11T15:08:23.668Z,16.88
2018-03-11T15:10:53.334Z,16.86
2018-03-11T15:13:23.335Z,16.94
2018-03-11T15:15:52.539Z,16.98
2018-03-11T15:18:22.593Z,17.01
2018-03-11T15:20:51.908Z,17.02
2018-03-11T15:23:21.171Z,16.99
2018-03-11T15:25:51.211Z,16.95
2018-03-11T15:28:20.501Z,16.97
2018-03-11T15:30:49.835Z,16.92
2018-03-11T15:33:19.106Z,16.89
2018-03-11T15:35:48.367Z,16.86
2018-03-11T15:38:17.604Z,16.88
2018-03-11T15:40:47.697Z,16.85
2018-03-11T15:43:17.696Z,16.80
2018-03-11T15:45:46.958Z,16.80
2018-03-11T15:48:16.359Z,16.77
2018-03-11T15:50:45.632Z,16.76
2018-03-11T15:53:14.858Z,16.73
2018-03-11T15:55:44.103Z,16.71
2018-03-11T15:58:13.329Z,16.70
2018-03-11T16:00:43.303Z,16.62
2018-03-11T16:03:12.555Z,16.61
2018-03-11T16:05:41.810Z,16.59
2018-03-11T16:08:11.048Z,16.54
2018-03-11T16:10:40.283Z,16.56
2018-03-11T16:13:09.529Z,16.56
2018-03-11T16:15:39.516Z,16.59
2018-03-11T16:18:08.754Z,16.62
2018-03-11T16:20:38.018Z,16.56
2018-03-11T16:23:08.153Z,16.58
2018-03-11T16:25:38.190Z,16.55
2018-03-11T16:28:07.395Z,16.56
2018-03-11T16:30:36.684Z,16.49
2018-03-11T16:33:06.725Z,16.49
2018-03-11T16:35:35.904Z,16.47
2018-03-11T16:38:05.211Z,16.44
2018-03-11T16:40:34.472Z,16.40
2018-03-11T16:43:03.687Z,16.37
2018-03-11T16:45:32.912Z,16.27
2018-03-11T16:48:02.205Z,16.19
2018-03-11T16:50:32.274Z,16.13
2018-03-11T16:53:01.545Z,16.09
2018-03-11T16:55:30.891Z,16.04
2018-03-11T16:58:00.737Z,16.00
2018-03-11T17:00:30.053Z,15.98
2018-03-11T17:02:59.298Z,15.90
2018-03-11T17:05:29.336Z,15.87
2018-03-11T17:07:59.336Z,15.84
2018-03-11T17:10:29.346Z,15.80
2018-03-11T17:12:59.354Z,15.73
2018-03-11T17:15:29.388Z,15.68
2018-03-11T17:17:59.390Z,15.58
2018-03-11T17:20:29.460Z,15.53
2018-03-11T17:22:58.786Z,15.49
2018-03-11T17:25:28.206Z,15.44
2018-03-11T17:27:58.204Z,15.36
2018-03-11T17:30:27.485Z,15.26
2018-03-11T17:32:56.865Z,15.21
2018-03-11T17:35:27.073Z,15.19
2018-03-11T17:37:56.324Z,15.13
2018-03-11T17:40:25.567Z,15.11
2018-03-11T17:42:54.803Z,15.08
2018-03-11T17:45:24.059Z,15.03
2018-03-11T17:47:54.077Z,14.98
2018-03-11T17:50:24.179Z,14.92
2018-03-11T17:52:54.135Z,14.91
2018-03-11T17:55:23.351Z,14.85
2018-03-11T17:57:52.624Z,14.78
2018-03-11T18:00:21.882Z,14.74
2018-03-11T18:02:51.156Z,14.64
2018-03-11T18:05:21.221Z,14.58
2018-03-11T18:07:50.506Z,14.55
2018-03-11T18:10:20.528Z,14.46
2018-03-11T18:12:49.783Z,14.39
2018-03-11T18:15:19.004Z,14.32
2018-03-11T18:17:48.282Z,14.23
2018-03-11T18:20:17.804Z,14.24
2018-03-11T18:22:47.052Z,14.22
2018-03-11T18:25:16.255Z,14.20
2018-03-11T18:27:45.496Z,14.21
2018-03-11T18:30:14.762Z,14.20
2018-03-11T18:32:44.044Z,14.07
2018-03-11T18:35:13.344Z,14.07
2018-03-11T18:37:42.558Z,14.09
2018-03-11T18:40:11.825Z,14.04
2018-03-11T18:42:41.045Z,14.03
2018-03-11T18:45:10.336Z,14.02
2018-03-11T18:47:39.542Z,13.98
2018-03-11T18:50:08.773Z,13.96
2018-03-11T18:52:37.997Z,13.91
2018-03-11T18:55:07.228Z,13.84
2018-03-11T18:57:36.508Z,13.71
2018-03-11T19:00:06.483Z,13.64
2018-03-11T19:02:35.712Z,13.55
2018-03-11T19:05:04.945Z,13.52
2018-03-11T19:07:34.196Z,13.46
2018-03-11T19:10:03.443Z,13.47
2018-03-11T19:12:32.655Z,13.44
2018-03-11T19:15:01.903Z,13.38
2018-03-11T19:17:31.133Z,13.37
2018-03-11T19:20:00.432Z,13.39
2018-03-11T19:22:29.677Z,13.36
2018-03-11T19:24:58.898Z,13.40
2018-03-11T19:27:28.879Z,13.40
2018-03-11T19:29:58.131Z,13.41
2018-03-11T19:32:27.392Z,13.39
2018-03-11T19:34:57.380Z,13.35
2018-03-11T19:37:26.641Z,13.34
2018-03-11T19:39:56.622Z,13.33
2018-03-11T19:42:25.898Z,13.28
2018-03-11T19:44:55.175Z,13.24
2018-03-11T19:47:24.421Z,13.22
2018-03-11T19:49:54.420Z,13.25
2018-03-11T19:52:23.659Z,13.28
2018-03-11T19:54:52.959Z,13.27
2018-03-11T19:57:22.189Z,13.24
2018-03-11T19:59:51.408Z,13.14
2018-03-11T20:02:20.630Z,13.15
2018-03-11T20:04:50.667Z,13.18
2018-03-11T20:07:20.681Z,13.16
2018-03-11T20:09:50.689Z,13.07
2018-03-11T20:12:20.674Z,13.06
2018-03-11T20:14:49.941Z,13.01
2018-03-11T20:17:19.142Z,12.97
2018-03-11T20:19:48.396Z,12.81
2018-03-11T20:22:18.457Z,12.75
2018-03-11T20:24:47.671Z,12.70
2018-03-11T20:27:16.906Z,12.61
2018-03-11T20:29:47.001Z,12.53
2018-03-11T20:32:16.250Z,12.50
2018-03-11T20:34:45.476Z,12.48
2018-03-11T20:37:14.702Z,12.53
2018-03-11T20:39:44.680Z,12.54
2018-03-11T20:42:13.907Z,12.52
2018-03-11T20:44:43.106Z,12.46
2018-03-11T20:47:12.369Z,12.44
2018-03-11T20:49:41.639Z,12.38
2018-03-11T20:52:10.898Z,12.35
2018-03-11T20:54:40.111Z,12.25
2018-03-11T20:57:09.429Z,12.20
2018-03-11T20:59:38.585Z,12.16
2018-03-11T21:02:07.835Z,12.20
2018-03-11T21:04:37.026Z,12.17
2018-03-11T21:07:06.349Z,12.17
2018-03-11T21:09:35.552Z,12.16
2018-03-11T21:12:04.786Z,12.07
2018-03-11T21:14:34.032Z,12.02
2018-03-11T21:17:03.264Z,11.99
2018-03-11T21:19:32.479Z,11.94
2018-03-11T21:22:01.709Z,11.97
2018-03-11T21:24:30.946Z,11.96
2018-03-11T21:27:00.380Z,11.99
2018-03-11T21:29:29.603Z,11.94
2018-03-11T21:31:58.875Z,11.94
2018-03-11T21:34:28.090Z,11.89
2018-03-11T21:36:57.287Z,11.73
2018-03-11T21:39:27.290Z,11.71
2018-03-11T21:41:56.507Z,11.64
2018-03-11T21:44:26.590Z,11.62
2018-03-11T21:46:55.865Z,11.60
2018-03-11T21:49:25.122Z,11.64
2018-03-11T21:51:54.396Z,11.55
2018-03-11T21:54:23.627Z,11.47
2018-03-11T21:56:52.848Z,11.37
2018-03-11T21:59:22.087Z,11.33
2018-03-11T22:01:52.078Z,11.32
2018-03-11T22:04:21.321Z,11.25
2018-03-11T22:06:50.628Z,11.24
2018-03-11T22:09:19.885Z,11.22
2018-03-11T22:11:49.131Z,11.14
2018-03-11T22:14:18.349Z,11.00
2018-03-11T22:16:47.606Z,10.94
2018-03-11T22:19:16.807Z,10.91
2018-03-11T22:21:46.055Z,10.88
2018-03-11T22:24:15.269Z,10.97
2018-03-11T22:26:44.833Z,11.05
2018-03-11T22:29:14.211Z,11.15
2018-03-11T22:31:43.603Z,11.23
2018-03-11T22:34:14.262Z,11.31
2018-03-11T22:36:44.313Z,11.29
2018-03-11T22:39:13.502Z,11.21
2018-03-11T22:41:42.759Z,11.21
2018-03-11T22:44:11.962Z,11.26
2018-03-11T22:46:41.955Z,11.33
2018-03-11T22:49:11.156Z,11.34
2018-03-11T22:51:40.389Z,11.36
2018-03-11T22:54:10.363Z,11.38
2018-03-11T22:56:39.627Z,11.38
2018-03-11T22:59:08.846Z,11.34
2018-03-11T23:01:38.095Z,11.29
2018-03-11T23:04:08.075Z,11.24
2018-03-11T23:06:37.355Z,11.15
2018-03-11T23:09:06.588Z,11.07
2018-03-11T23:11:35.842Z,11.00
2018-03-11T23:14:05.145Z,10.93
2018-03-11T23:16:34.356Z,10.73
2018-03-11T23:19:21.393Z,10.69
2018-03-11T23:21:50.564Z,10.68
2018-03-11T23:24:19.850Z,10.67
2018-03-11T23:26:49.044Z,10.65
2018-03-11T23:29:18.354Z,10.67
2018-03-11T23:31:47.570Z,10.65
2018-03-11T23:34:16.799Z,10.65
2018-03-11T23:36:45.994Z,10.52
2018-03-11T23:39:16.031Z,10.45
2018-03-11T23:41:45.267Z,10.43
2018-03-11T23:44:14.492Z,10.48
2018-03-11T23:46:43.683Z,10.46
2018-03-11T23:49:13.695Z,10.47
2018-03-11T23:51:42.912Z,10.49
2018-03-11T23:54:12.945Z,10.48
2018-03-11T23:56:42.206Z,10.49
2018-03-11T23:59:11.630Z,10.45
